North Arm Victor — CFK9387 — position and weather

sailwx.info

Track history (hours):
 
Tides and Currents Weather Stations Pressure Air Temp Water Temp Dewpoint Dewpoint Depression Visibility Wind Speed Wind Dir Waves Ship Positions

North Arm Victor

Last reported at 2018-Jan-22 16:01 UTC. Time now 2018-Jan-22 16:27 UTC.
Position N 51°08' W 127°30'.

Length 18 m.

Type: Tug. MMSI: 316003008.

Date/timePositionNaut miles runAvg speedWind from/ knotsBaromVisibWave heightAir tempDewpointWater temp
2018-Jan-22 16:01N 51°08' W 127°30'2 3.3
2018-Jan-22 15:30N 51°07' W 127°32'1 2.7
2018-Jan-22 15:00N 51°05' W 127°33'3 6.9
2018-Jan-22 14:30N 51°05' W 127°38'2 4.8
2018-Jan-22 14:00N 51°05' W 127°42'3 6.5
2018-Jan-22 13:30N 51°07' W 127°46'3 6.6
2018-Jan-22 12:59N 51°09' W 127°50'4 7.1
2018-Jan-22 12:24N 51°13' W 127°52'15 6.2
2018-Jan-22 09:59N 51°26' W 127°41'13 0.7
2018-Jan-21 15:55N 51°38' W 127°31'13 4.5
2018-Jan-21 12:56N 51°30' W 127°48'28 3.6
2018-Jan-21 05:05N 51°58' W 127°41'1 6.4
2018-Jan-21 04:58N 51°57' W 127°42'3 6.5
2018-Jan-21 04:28N 51°57' W 127°47'3 7.1
2018-Jan-21 04:00N 51°55' W 127°52'3 5.9
2018-Jan-21 03:30N 51°57' W 127°56'4 8.1
2018-Jan-21 03:00N 52°01' W 127°56'6 5.8
2018-Jan-21 01:58N 52°04' W 128°03'4 6.8
2018-Jan-21 01:26N 52°07' W 128°08'8 6.5
2018-Jan-21 00:11N 52°15' W 128°11'3 6.5
2018-Jan-20 23:48N 52°17' W 128°13'2 6.1
2018-Jan-20 23:26N 52°19' W 128°12'1 0.9
2018-Jan-20 22:11N 52°20' W 128°12'2 8.0
2018-Jan-20 21:56N 52°22' W 128°11'3 0.4
2018-Jan-20 14:24N 52°25' W 128°08'3 6.3
2018-Jan-20 14:00N 52°22' W 128°10'3 5.9
2018-Jan-20 13:28N 52°20' W 128°13'4 7.8
2018-Jan-20 13:00N 52°16' W 128°15'3 6.3
2018-Jan-20 12:29N 52°15' W 128°20'3 7.3
2018-Jan-20 12:00N 52°16' W 128°26'4 7.0
2018-Jan-20 11:28N 52°18' W 128°30'3 7.0
2018-Jan-20 11:00N 52°21' W 128°32'4 7.7
2018-Jan-20 10:30N 52°25' W 128°30'4 7.5
2018-Jan-20 10:00N 52°28' W 128°27'0 0.0
2018-Jan-19 19:46N 52°29' W 128°27'2 7.4
2018-Jan-19 19:30N 52°27' W 128°28'3 5.8
2018-Jan-19 19:00N 52°24' W 128°30'4 5.9
2018-Jan-19 18:22N 52°21' W 128°32'3 7.8
2018-Jan-19 17:57N 52°18' W 128°30'6 7.7
2018-Jan-19 17:07N 52°15' W 128°20'2 5.5
2018-Jan-19 16:40N 52°15' W 128°16'1 7.9
2018-Jan-19 16:30N 52°16' W 128°14'4 7.8
2018-Jan-19 16:00N 52°17' W 128°08'4 7.8
2018-Jan-19 15:30N 52°19' W 128°02'4 7.8
2018-Jan-19 15:00N 52°18' W 127°56'4 7.5
2018-Jan-19 14:29N 52°14' W 127°54'4 7.3
2018-Jan-19 14:00N 52°11' W 127°52'4 8.3
2018-Jan-19 13:30N 52°14' W 127°48'4 8.3
2018-Jan-19 13:00N 52°18' W 127°45'4 7.3
2018-Jan-19 12:30N 52°21' W 127°43'1 1.0
2018-Jan-19 11:52N 52°21' W 127°42'0 0.9
2018-Jan-19 11:30N 52°21' W 127°42'2 3.0
2018-Jan-19 11:00N 52°20' W 127°44'4 7.1
2018-Jan-19 10:30N 52°17' W 127°46'3 5.9
2018-Jan-19 10:00N 52°16' W 127°42'3 0.5
2018-Jan-19 04:35N 52°15' W 127°37'1 6.8
2018-Jan-19 04:30N 52°16' W 127°37'  
Track history (hours):
 
Tides and Currents Weather Stations Pressure Air Temp Water Temp Dewpoint Dewpoint Depression Visibility Wind Speed Wind Dir Waves Ship Positions

North Arm Victor

Last reported at 2018-Jan-22 16:01 UTC. Time now 2018-Jan-22 16:27 UTC.
Position N 51°08' W 127°30'.

Length 18 m.

Type: Tug. MMSI: 316003008.

Date/timePositionNaut miles runAvg speedWind from/ knotsBaromVisibWave heightAir tempDewpointWater temp
2018-Jan-22 16:01N 51°08' W 127°30'2 3.3
2018-Jan-22 15:30N 51°07' W 127°32'1 2.7
2018-Jan-22 15:00N 51°05' W 127°33'3 6.9
2018-Jan-22 14:30N 51°05' W 127°38'2 4.8
2018-Jan-22 14:00N 51°05' W 127°42'3 6.5
2018-Jan-22 13:30N 51°07' W 127°46'3 6.6
2018-Jan-22 12:59N 51°09' W 127°50'4 7.1
2018-Jan-22 12:24N 51°13' W 127°52'15 6.2
2018-Jan-22 09:59N 51°26' W 127°41'13 0.7
2018-Jan-21 15:55N 51°38' W 127°31'13 4.5
2018-Jan-21 12:56N 51°30' W 127°48'28 3.6
2018-Jan-21 05:05N 51°58' W 127°41'1 6.4
2018-Jan-21 04:58N 51°57' W 127°42'3 6.5
2018-Jan-21 04:28N 51°57' W 127°47'3 7.1
2018-Jan-21 04:00N 51°55' W 127°52'3 5.9
2018-Jan-21 03:30N 51°57' W 127°56'4 8.1
2018-Jan-21 03:00N 52°01' W 127°56'6 5.8
2018-Jan-21 01:58N 52°04' W 128°03'4 6.8
2018-Jan-21 01:26N 52°07' W 128°08'8 6.5
2018-Jan-21 00:11N 52°15' W 128°11'3 6.5
2018-Jan-20 23:48N 52°17' W 128°13'2 6.1
2018-Jan-20 23:26N 52°19' W 128°12'1 0.9
2018-Jan-20 22:11N 52°20' W 128°12'2 8.0
2018-Jan-20 21:56N 52°22' W 128°11'3 0.4
2018-Jan-20 14:24N 52°25' W 128°08'3 6.3
2018-Jan-20 14:00N 52°22' W 128°10'3 5.9
2018-Jan-20 13:28N 52°20' W 128°13'4 7.8
2018-Jan-20 13:00N 52°16' W 128°15'3 6.3
2018-Jan-20 12:29N 52°15' W 128°20'3 7.3
2018-Jan-20 12:00N 52°16' W 128°26'4 7.0
2018-Jan-20 11:28N 52°18' W 128°30'3 7.0
2018-Jan-20 11:00N 52°21' W 128°32'4 7.7
2018-Jan-20 10:30N 52°25' W 128°30'4 7.5
2018-Jan-20 10:00N 52°28' W 128°27'0 0.0
2018-Jan-19 19:46N 52°29' W 128°27'2 7.4
2018-Jan-19 19:30N 52°27' W 128°28'3 5.8
2018-Jan-19 19:00N 52°24' W 128°30'4 5.9
2018-Jan-19 18:22N 52°21' W 128°32'3 7.8
2018-Jan-19 17:57N 52°18' W 128°30'6 7.7
2018-Jan-19 17:07N 52°15' W 128°20'2 5.5
2018-Jan-19 16:40N 52°15' W 128°16'1 7.9
2018-Jan-19 16:30N 52°16' W 128°14'4 7.8
2018-Jan-19 16:00N 52°17' W 128°08'4 7.8
2018-Jan-19 15:30N 52°19' W 128°02'4 7.8
2018-Jan-19 15:00N 52°18' W 127°56'4 7.5
2018-Jan-19 14:29N 52°14' W 127°54'4 7.3
2018-Jan-19 14:00N 52°11' W 127°52'4 8.3
2018-Jan-19 13:30N 52°14' W 127°48'4 8.3
2018-Jan-19 13:00N 52°18' W 127°45'4 7.3
2018-Jan-19 12:30N 52°21' W 127°43'1 1.0
2018-Jan-19 11:52N 52°21' W 127°42'0 0.9
2018-Jan-19 11:30N 52°21' W 127°42'2 3.0
2018-Jan-19 11:00N 52°20' W 127°44'4 7.1
2018-Jan-19 10:30N 52°17' W 127°46'3 5.9
2018-Jan-19 10:00N 52°16' W 127°42'3 0.5
2018-Jan-19 04:35N 52°15' W 127°37'1 6.8
2018-Jan-19 04:30N 52°16' W 127°37'  

Dump ship's entire track history